This is the latest recevied weather packets stored in our database for station/object NE8U. If no packets are shown the sender has not sent any weather packets the latest 1 day(s).
| Time | Temp. | Humidity | Pressure | Rain* | Wind** | Luminosity | Snow |
|---|---|---|---|---|---|---|---|
| 1778062636 | 11.11° C | 72% | 1015.9 hPa | 0 mm | - | 0 W/m² | - |
| 1778062333 | 11.11° C | 73% | 1015.9 hPa | 0 mm | - | 0 W/m² | - |
| 1778062031 | 11.11° C | 73% | 1015.9 hPa | 0 mm | - | 0 W/m² | - |
| 1778061729 | 11.67° C | 73% | 1015.7 hPa | 0 mm | - | 0 W/m² | - |
| 1778061427 | 11.67° C | 70% | 1015.8 hPa | 0 mm | - | 0 W/m² | - |
| 1778060821 | 12.22° C | 65% | 1015.9 hPa | 0 mm | - | 0 W/m² | - |
| 1778060519 | 12.22° C | 65% | 1015.7 hPa | 0 mm | - | 0 W/m² | - |
| 1778059007 | 12.78° C | 65% | 1015.8 hPa | 0 mm | - | 0 W/m² | - |
| 1778057795 | 12.78° C | 62% | 1015.7 hPa | 0 mm | - | 0 W/m² | - |
| 1778057491 | 13.33° C | 62% | 1015.8 hPa | 0 mm | - | 0 W/m² | - |
| 1778056279 | 13.89° C | 59% | 1015.8 hPa | 0 mm | - | 0 W/m² | - |
| 1778055671 | 13.89° C | 57% | 1015.8 hPa | 0 mm | - | 0 W/m² | - |
| 1778055370 | 13.33° C | 57% | 1015.8 hPa | 0 mm | - | 0 W/m² | - |
| 1778055067 | 13.89° C | 57% | 1015.9 hPa | 0 mm | - | 0 W/m² | - |
| 1778054461 | 13.89° C | 54% | 1016 hPa | 0 mm | - | 0 W/m² | - |
| 1778054159 | 13.89° C | 54% | 1016.2 hPa | 0 mm | - | 0 W/m² | - |
| 1778053855 | 13.89° C | 55% | 1016.2 hPa | 0 mm | - | 0 W/m² | - |
| 1778053553 | 13.89° C | 55% | 1016.3 hPa | 0 mm | - | 0 W/m² | - |
| 1778053250 | 13.33° C | 57% | 1016.2 hPa | 0 mm | - | 0 W/m² | - |
| 1778051737 | 15° C | 51% | 1015.9 hPa | 0 mm | - | 0 W/m² | - |
| 1778051434 | 15° C | 48% | 1015.9 hPa | 0 mm | - | 0 W/m² | - |
| 1778049615 | 15.56° C | 47% | 1015.8 hPa | 0 mm | - | 0 W/m² | - |
| 1778048709 | 16.11° C | 46% | 1015.6 hPa | 0 mm | - | 0 W/m² | - |
| 1778047799 | 16.11° C | 47% | 1015.8 hPa | 0 mm | - | 0 W/m² | - |
| 1778047194 | 16.67° C | 47% | 1015.9 hPa | 0 mm | - | 0 W/m² | - |
* Rain latest hour (hover to see other rain measurements)
** Current wind speed in m/s (hover to see current wind gust speed)